Lawrenceville, Alabama
Current Conditions -  °F | °C
As of 10:53 PM on Friday 28 Nov 2014 (Local Time) from KDHN Reporting Station
Clear Clear  
Wind Chill: 33°   Ceiling: Unl
Heat Index: 38°   Visibility: 10mi
Dew Point: 31°   Wind: 6mph
Humidity: 76%   Direction: 150°SSE
Pressure: 30.32"   Gusts: NA
Location:  31.598°N, 85.3148°W
Report Text: KDHN 290453Z AUTO 15005KT 10SM CLR 03/M01 A3032 RMK AO2 SLP268 T00331006
Loading
Personal Weather Stations






























Interactive Weather Map New forecast layout! Learn more

10-Day Weather Forecast

Advertisements
Track Severe Weather on mobile